Denzil, Canada
Current Conditions -  °F | °C
As of 2:00 AM on Friday 31 Oct 2014 (Local Time) from CYKY Reporting Station
Overcast Overcast  
Wind Chill: 21°   Ceiling: 900
Heat Index: 34°   Visibility: 15mi
Dew Point: 30°   Wind: 28mph
Humidity: 87%   Direction: 150°SSE
Pressure: 30.04"   Gusts: 36mph
Location:  52.23°N, 109.65°W
Report Text: CYKY 310800Z 15024G31KT 15SM OVC009 01/M01 A3004 RMK SC8 SLP200
Loading
Personal Weather Stations






























Interactive Weather Map New forecast layout! Learn more

10-Day Weather Forecast

Advertisements
Track Severe Weather on mobile